sensor_id;sensor_type;location;lat;lon;timestamp;temperature;humidity
64987;DHT22;67903;52.108;9.358;2023-08-30T00:00:01;13.00;83.70
64987;DHT22;67903;52.108;9.358;2023-08-30T00:02:51;13.00;83.80
64987;DHT22;67903;52.108;9.358;2023-08-30T00:05:38;12.90;83.90
64987;DHT22;67903;52.108;9.358;2023-08-30T00:08:24;12.80;84.30
64987;DHT22;67903;52.108;9.358;2023-08-30T00:11:10;12.70;84.40
64987;DHT22;67903;52.108;9.358;2023-08-30T00:14:03;12.70;84.70
64987;DHT22;67903;52.108;9.358;2023-08-30T00:16:50;12.80;84.70
64987;DHT22;67903;52.108;9.358;2023-08-30T00:19:36;12.80;84.60
64987;DHT22;67903;52.108;9.358;2023-08-30T00:22:22;12.70;84.90
64987;DHT22;67903;52.108;9.358;2023-08-30T00:25:07;12.70;85.10
64987;DHT22;67903;52.108;9.358;2023-08-30T00:27:53;12.60;85.60
64987;DHT22;67903;52.108;9.358;2023-08-30T00:30:38;12.60;85.70
64987;DHT22;67903;52.108;9.358;2023-08-30T00:33:25;12.50;85.80
64987;DHT22;67903;52.108;9.358;2023-08-30T00:36:10;12.50;85.80
64987;DHT22;67903;52.108;9.358;2023-08-30T00:38:56;12.50;86.10
64987;DHT22;67903;52.108;9.358;2023-08-30T00:41:41;12.50;86.30
64987;DHT22;67903;52.108;9.358;2023-08-30T00:44:27;12.50;86.10
64987;DHT22;67903;52.108;9.358;2023-08-30T00:47:12;12.50;86.40
64987;DHT22;67903;52.108;9.358;2023-08-30T00:49:58;12.50;86.30
64987;DHT22;67903;52.108;9.358;2023-08-30T00:52:44;12.50;86.30
64987;DHT22;67903;52.108;9.358;2023-08-30T00:55:29;12.50;86.40
64987;DHT22;67903;52.108;9.358;2023-08-30T00:58:15;12.50;86.80
64987;DHT22;67903;52.108;9.358;2023-08-30T01:01:01;12.40;87.10
64987;DHT22;67903;52.108;9.358;2023-08-30T01:03:47;12.50;87.00
64987;DHT22;67903;52.108;9.358;2023-08-30T01:06:32;12.40;87.20
64987;DHT22;67903;52.108;9.358;2023-08-30T01:09:21;12.40;87.30
64987;DHT22;67903;52.108;9.358;2023-08-30T01:12:10;12.40;87.20
64987;DHT22;67903;52.108;9.358;2023-08-30T01:15:04;12.40;87.20
64987;DHT22;67903;52.108;9.358;2023-08-30T01:17:52;12.30;87.70
64987;DHT22;67903;52.108;9.358;2023-08-30T01:20:39;12.20;88.00
64987;DHT22;67903;52.108;9.358;2023-08-30T01:23:40;12.20;88.20
64987;DHT22;67903;52.108;9.358;2023-08-30T01:29:49;12.10;88.30
64987;DHT22;67903;52.108;9.358;2023-08-30T01:32:35;12.10;88.30
64987;DHT22;67903;52.108;9.358;2023-08-30T01:35:22;12.10;88.40
64987;DHT22;67903;52.108;9.358;2023-08-30T01:38:08;12.10;88.30
64987;DHT22;67903;52.108;9.358;2023-08-30T01:40:57;12.10;88.30
64987;DHT22;67903;52.108;9.358;2023-08-30T01:43:45;12.10;88.20
64987;DHT22;67903;52.108;9.358;2023-08-30T01:46:33;12.10;88.10
64987;DHT22;67903;52.108;9.358;2023-08-30T01:49:19;12.20;88.00
64987;DHT22;67903;52.108;9.358;2023-08-30T01:52:06;12.20;87.90
64987;DHT22;67903;52.108;9.358;2023-08-30T01:54:52;12.20;87.90
64987;DHT22;67903;52.108;9.358;2023-08-30T01:57:41;12.20;87.80
64987;DHT22;67903;52.108;9.358;2023-08-30T02:00:26;12.30;88.00
64987;DHT22;67903;52.108;9.358;2023-08-30T02:03:13;12.30;87.90
64987;DHT22;67903;52.108;9.358;2023-08-30T02:06:06;12.30;88.10
64987;DHT22;67903;52.108;9.358;2023-08-30T02:08:58;12.30;88.10
64987;DHT22;67903;52.108;9.358;2023-08-30T02:11:48;12.30;87.80
64987;DHT22;67903;52.108;9.358;2023-08-30T02:14:37;12.30;87.70
64987;DHT22;67903;52.108;9.358;2023-08-30T02:17:23;12.20;87.70
64987;DHT22;67903;52.108;9.358;2023-08-30T02:20:10;12.10;88.10
64987;DHT22;67903;52.108;9.358;2023-08-30T02:22:58;12.10;88.20
64987;DHT22;67903;52.108;9.358;2023-08-30T02:25:55;12.10;87.90
64987;DHT22;67903;52.108;9.358;2023-08-30T02:28:41;12.10;88.00
64987;DHT22;67903;52.108;9.358;2023-08-30T02:31:27;12.10;88.00
64987;DHT22;67903;52.108;9.358;2023-08-30T02:34:14;12.00;88.10
64987;DHT22;67903;52.108;9.358;2023-08-30T02:36:59;12.00;88.10
64987;DHT22;67903;52.108;9.358;2023-08-30T02:39:45;12.10;87.90
64987;DHT22;67903;52.108;9.358;2023-08-30T02:42:31;12.10;87.90
64987;DHT22;67903;52.108;9.358;2023-08-30T02:45:16;12.00;88.00
64987;DHT22;67903;52.108;9.358;2023-08-30T02:48:03;12.00;88.20
64987;DHT22;67903;52.108;9.358;2023-08-30T02:50:48;12.00;88.40
64987;DHT22;67903;52.108;9.358;2023-08-30T02:53:34;11.90;88.30
64987;DHT22;67903;52.108;9.358;2023-08-30T02:56:19;11.90;88.60
64987;DHT22;67903;52.108;9.358;2023-08-30T02:59:05;11.90;88.70
64987;DHT22;67903;52.108;9.358;2023-08-30T03:01:50;11.90;88.60
64987;DHT22;67903;52.108;9.358;2023-08-30T03:04:37;11.80;88.80
64987;DHT22;67903;52.108;9.358;2023-08-30T03:07:23;11.70;89.00
64987;DHT22;67903;52.108;9.358;2023-08-30T03:10:12;11.70;88.90
64987;DHT22;67903;52.108;9.358;2023-08-30T03:12:57;11.70;89.20
64987;DHT22;67903;52.108;9.358;2023-08-30T03:15:43;11.70;89.20
64987;DHT22;67903;52.108;9.358;2023-08-30T03:18:29;11.60;89.50
64987;DHT22;67903;52.108;9.358;2023-08-30T03:21:14;11.60;89.90
64987;DHT22;67903;52.108;9.358;2023-08-30T03:24:00;11.70;89.70
64987;DHT22;67903;52.108;9.358;2023-08-30T03:26:45;11.70;89.50
64987;DHT22;67903;52.108;9.358;2023-08-30T03:29:31;11.70;89.60
64987;DHT22;67903;52.108;9.358;2023-08-30T03:32:18;11.70;89.60
64987;DHT22;67903;52.108;9.358;2023-08-30T03:35:06;11.90;89.10
64987;DHT22;67903;52.108;9.358;2023-08-30T03:37:52;11.90;88.90
64987;DHT22;67903;52.108;9.358;2023-08-30T03:40:37;11.90;88.70
64987;DHT22;67903;52.108;9.358;2023-08-30T03:43:25;11.90;88.60
64987;DHT22;67903;52.108;9.358;2023-08-30T03:46:11;11.90;88.60
64987;DHT22;67903;52.108;9.358;2023-08-30T03:48:57;11.90;88.50
64987;DHT22;67903;52.108;9.358;2023-08-30T03:51:43;11.80;88.50
64987;DHT22;67903;52.108;9.358;2023-08-30T03:54:28;11.80;88.40
64987;DHT22;67903;52.108;9.358;2023-08-30T03:57:14;11.90;88.10
64987;DHT22;67903;52.108;9.358;2023-08-30T03:59:59;11.90;87.90
64987;DHT22;67903;52.108;9.358;2023-08-30T04:02:46;11.90;87.70
64987;DHT22;67903;52.108;9.358;2023-08-30T04:05:33;11.90;87.60
64987;DHT22;67903;52.108;9.358;2023-08-30T04:08:19;11.90;87.80
64987;DHT22;67903;52.108;9.358;2023-08-30T04:11:05;11.90;87.70
64987;DHT22;67903;52.108;9.358;2023-08-30T04:13:50;11.90;87.70
64987;DHT22;67903;52.108;9.358;2023-08-30T04:16:37;11.90;87.60
64987;DHT22;67903;52.108;9.358;2023-08-30T04:19:25;11.90;87.50
64987;DHT22;67903;52.108;9.358;2023-08-30T04:22:10;11.90;87.70
64987;DHT22;67903;52.108;9.358;2023-08-30T04:24:56;11.90;87.50
64987;DHT22;67903;52.108;9.358;2023-08-30T04:27:42;11.90;87.40
64987;DHT22;67903;52.108;9.358;2023-08-30T04:30:28;11.90;87.50
64987;DHT22;67903;52.108;9.358;2023-08-30T04:33:13;11.90;87.60
64987;DHT22;67903;52.108;9.358;2023-08-30T04:35:59;11.90;87.70
64987;DHT22;67903;52.108;9.358;2023-08-30T04:38:46;11.90;87.90
64987;DHT22;67903;52.108;9.358;2023-08-30T04:41:47;11.90;87.60
64987;DHT22;67903;52.108;9.358;2023-08-30T04:44:32;11.90;87.80
64987;DHT22;67903;52.108;9.358;2023-08-30T04:47:18;11.90;87.80
64987;DHT22;67903;52.108;9.358;2023-08-30T04:50:04;12.00;87.60
64987;DHT22;67903;52.108;9.358;2023-08-30T04:52:51;12.00;87.30
64987;DHT22;67903;52.108;9.358;2023-08-30T04:55:36;12.00;87.30
64987;DHT22;67903;52.108;9.358;2023-08-30T04:58:22;12.10;87.40
64987;DHT22;67903;52.108;9.358;2023-08-30T05:01:07;12.10;87.10
64987;DHT22;67903;52.108;9.358;2023-08-30T05:03:55;12.20;86.90
64987;DHT22;67903;52.108;9.358;2023-08-30T05:06:41;12.20;87.00
64987;DHT22;67903;52.108;9.358;2023-08-30T05:09:27;12.10;87.30
64987;DHT22;67903;52.108;9.358;2023-08-30T05:12:13;12.10;87.20
64987;DHT22;67903;52.108;9.358;2023-08-30T05:14:59;12.10;87.20
64987;DHT22;67903;52.108;9.358;2023-08-30T05:17:45;12.20;87.10
64987;DHT22;67903;52.108;9.358;2023-08-30T05:20:31;12.30;87.00
64987;DHT22;67903;52.108;9.358;2023-08-30T05:23:16;12.30;86.90
64987;DHT22;67903;52.108;9.358;2023-08-30T05:26:02;12.30;87.10
64987;DHT22;67903;52.108;9.358;2023-08-30T05:28:47;12.30;87.10
64987;DHT22;67903;52.108;9.358;2023-08-30T05:31:33;12.40;86.90
64987;DHT22;67903;52.108;9.358;2023-08-30T05:34:39;12.40;86.70
64987;DHT22;67903;52.108;9.358;2023-08-30T05:37:37;12.30;86.90
64987;DHT22;67903;52.108;9.358;2023-08-30T05:40:41;12.40;86.50
64987;DHT22;67903;52.108;9.358;2023-08-30T05:43:30;12.50;86.50
64987;DHT22;67903;52.108;9.358;2023-08-30T05:46:16;12.50;86.60
64987;DHT22;67903;52.108;9.358;2023-08-30T05:49:02;12.40;86.70
64987;DHT22;67903;52.108;9.358;2023-08-30T05:51:48;12.50;86.30
64987;DHT22;67903;52.108;9.358;2023-08-30T05:54:35;12.50;86.30
64987;DHT22;67903;52.108;9.358;2023-08-30T05:57:21;12.60;85.90
64987;DHT22;67903;52.108;9.358;2023-08-30T06:00:08;12.70;85.70
64987;DHT22;67903;52.108;9.358;2023-08-30T06:03:00;12.80;85.10
64987;DHT22;67903;52.108;9.358;2023-08-30T06:05:45;12.80;84.90
64987;DHT22;67903;52.108;9.358;2023-08-30T06:08:30;12.70;84.90
64987;DHT22;67903;52.108;9.358;2023-08-30T06:11:16;12.80;85.10
64987;DHT22;67903;52.108;9.358;2023-08-30T06:14:02;12.80;84.80
64987;DHT22;67903;52.108;9.358;2023-08-30T06:16:47;12.90;84.40
64987;DHT22;67903;52.108;9.358;2023-08-30T06:19:34;12.80;84.90
64987;DHT22;67903;52.108;9.358;2023-08-30T06:22:19;12.90;84.70
64987;DHT22;67903;52.108;9.358;2023-08-30T06:25:06;13.00;84.10
64987;DHT22;67903;52.108;9.358;2023-08-30T06:27:57;12.90;84.40
64987;DHT22;67903;52.108;9.358;2023-08-30T06:30:44;12.90;84.70
64987;DHT22;67903;52.108;9.358;2023-08-30T06:33:29;13.00;84.70
64987;DHT22;67903;52.108;9.358;2023-08-30T06:36:15;13.00;84.20
64987;DHT22;67903;52.108;9.358;2023-08-30T06:39:02;13.10;84.20
64987;DHT22;67903;52.108;9.358;2023-08-30T06:41:48;13.10;84.20
64987;DHT22;67903;52.108;9.358;2023-08-30T06:44:33;13.10;84.00
64987;DHT22;67903;52.108;9.358;2023-08-30T06:47:19;13.10;84.00
64987;DHT22;67903;52.108;9.358;2023-08-30T06:50:05;13.30;83.70
64987;DHT22;67903;52.108;9.358;2023-08-30T06:52:50;13.40;83.20
64987;DHT22;67903;52.108;9.358;2023-08-30T06:55:36;13.50;82.60
64987;DHT22;67903;52.108;9.358;2023-08-30T06:58:22;13.50;82.20
64987;DHT22;67903;52.108;9.358;2023-08-30T07:01:07;13.60;82.20
64987;DHT22;67903;52.108;9.358;2023-08-30T07:03:53;13.60;82.20
64987;DHT22;67903;52.108;9.358;2023-08-30T07:06:39;13.70;82.00
64987;DHT22;67903;52.108;9.358;2023-08-30T07:09:24;13.70;82.00
64987;DHT22;67903;52.108;9.358;2023-08-30T07:12:14;13.70;81.90
64987;DHT22;67903;52.108;9.358;2023-08-30T07:14:59;13.80;81.50
64987;DHT22;67903;52.108;9.358;2023-08-30T07:17:45;13.90;81.50
64987;DHT22;67903;52.108;9.358;2023-08-30T07:20:50;13.90;81.10
64987;DHT22;67903;52.108;9.358;2023-08-30T07:23:36;14.00;81.00
64987;DHT22;67903;52.108;9.358;2023-08-30T07:26:21;14.10;81.00
64987;DHT22;67903;52.108;9.358;2023-08-30T07:29:08;14.10;81.10
64987;DHT22;67903;52.108;9.358;2023-08-30T07:31:54;14.20;80.90
64987;DHT22;67903;52.108;9.358;2023-08-30T07:34:40;14.40;80.20
64987;DHT22;67903;52.108;9.358;2023-08-30T07:37:25;14.40;79.70
64987;DHT22;67903;52.108;9.358;2023-08-30T07:40:11;14.60;79.10
64987;DHT22;67903;52.108;9.358;2023-08-30T07:42:57;14.60;78.60
64987;DHT22;67903;52.108;9.358;2023-08-30T07:45:49;14.80;78.50
64987;DHT22;67903;52.108;9.358;2023-08-30T07:48:34;14.90;77.90
64987;DHT22;67903;52.108;9.358;2023-08-30T07:51:19;15.00;77.80
64987;DHT22;67903;52.108;9.358;2023-08-30T07:54:05;15.30;77.20
64987;DHT22;67903;52.108;9.358;2023-08-30T07:56:51;15.40;76.50
64987;DHT22;67903;52.108;9.358;2023-08-30T07:59:37;15.60;76.20
64987;DHT22;67903;52.108;9.358;2023-08-30T08:02:22;15.60;75.80
64987;DHT22;67903;52.108;9.358;2023-08-30T08:05:08;15.80;74.80
64987;DHT22;67903;52.108;9.358;2023-08-30T08:07:53;15.90;74.70
64987;DHT22;67903;52.108;9.358;2023-08-30T08:10:39;16.10;74.10
64987;DHT22;67903;52.108;9.358;2023-08-30T08:13:24;16.20;73.40
64987;DHT22;67903;52.108;9.358;2023-08-30T08:16:10;16.10;73.10
64987;DHT22;67903;52.108;9.358;2023-08-30T08:18:55;16.30;72.90
64987;DHT22;67903;52.108;9.358;2023-08-30T08:21:44;16.40;72.80
64987;DHT22;67903;52.108;9.358;2023-08-30T08:24:29;16.50;71.90
64987;DHT22;67903;52.108;9.358;2023-08-30T08:27:15;16.50;71.80
64987;DHT22;67903;52.108;9.358;2023-08-30T08:30:01;16.60;71.80
64987;DHT22;67903;52.108;9.358;2023-08-30T08:32:47;16.60;71.80
64987;DHT22;67903;52.108;9.358;2023-08-30T08:35:35;16.60;72.20
64987;DHT22;67903;52.108;9.358;2023-08-30T08:38:20;16.60;72.20
64987;DHT22;67903;52.108;9.358;2023-08-30T08:41:06;16.50;72.30
64987;DHT22;67903;52.108;9.358;2023-08-30T08:43:53;16.50;72.60
64987;DHT22;67903;52.108;9.358;2023-08-30T08:46:40;16.50;72.90
64987;DHT22;67903;52.108;9.358;2023-08-30T08:49:27;16.60;72.90
64987;DHT22;67903;52.108;9.358;2023-08-30T08:52:15;16.60;72.70
64987;DHT22;67903;52.108;9.358;2023-08-30T08:55:17;16.60;72.70
64987;DHT22;67903;52.108;9.358;2023-08-30T08:58:03;16.70;72.20
64987;DHT22;67903;52.108;9.358;2023-08-30T09:00:49;16.80;72.20
64987;DHT22;67903;52.108;9.358;2023-08-30T09:03:35;16.80;72.20
64987;DHT22;67903;52.108;9.358;2023-08-30T09:06:21;16.80;72.40
64987;DHT22;67903;52.108;9.358;2023-08-30T09:09:08;16.90;72.40
64987;DHT22;67903;52.108;9.358;2023-08-30T09:11:54;16.80;72.20
64987;DHT22;67903;52.108;9.358;2023-08-30T09:14:39;16.90;72.10
64987;DHT22;67903;52.108;9.358;2023-08-30T09:17:38;17.00;71.60
64987;DHT22;67903;52.108;9.358;2023-08-30T09:20:24;17.00;71.90
64987;DHT22;67903;52.108;9.358;2023-08-30T09:23:20;17.20;71.40
64987;DHT22;67903;52.108;9.358;2023-08-30T09:26:06;17.20;70.90
64987;DHT22;67903;52.108;9.358;2023-08-30T09:28:51;17.30;70.60
64987;DHT22;67903;52.108;9.358;2023-08-30T09:31:38;17.50;70.20
64987;DHT22;67903;52.108;9.358;2023-08-30T09:34:27;17.50;68.70
64987;DHT22;67903;52.108;9.358;2023-08-30T09:37:23;17.60;68.80
64987;DHT22;67903;52.108;9.358;2023-08-30T09:40:08;17.80;68.70
64987;DHT22;67903;52.108;9.358;2023-08-30T09:42:54;17.90;68.70
64987;DHT22;67903;52.108;9.358;2023-08-30T09:45:57;18.00;67.60
64987;DHT22;67903;52.108;9.358;2023-08-30T09:48:44;18.10;67.20
64987;DHT22;67903;52.108;9.358;2023-08-30T09:51:29;18.10;67.20
64987;DHT22;67903;52.108;9.358;2023-08-30T09:54:20;18.40;66.50
64987;DHT22;67903;52.108;9.358;2023-08-30T09:57:09;18.60;65.40
64987;DHT22;67903;52.108;9.358;2023-08-30T09:59:55;18.80;64.70
64987;DHT22;67903;52.108;9.358;2023-08-30T10:02:42;19.00;64.00
64987;DHT22;67903;52.108;9.358;2023-08-30T10:05:49;19.20;63.00
64987;DHT22;67903;52.108;9.358;2023-08-30T10:08:36;19.40;62.20
64987;DHT22;67903;52.108;9.358;2023-08-30T10:11:24;19.50;61.60
64987;DHT22;67903;52.108;9.358;2023-08-30T10:14:13;19.40;62.40
64987;DHT22;67903;52.108;9.358;2023-08-30T10:17:03;19.50;61.70
64987;DHT22;67903;52.108;9.358;2023-08-30T10:19:50;19.30;63.00
64987;DHT22;67903;52.108;9.358;2023-08-30T10:22:37;19.40;62.90
64987;DHT22;67903;52.108;9.358;2023-08-30T10:25:27;19.50;61.10
64987;DHT22;67903;52.108;9.358;2023-08-30T10:28:13;19.60;60.30
64987;DHT22;67903;52.108;9.358;2023-08-30T10:30:59;19.60;60.10
64987;DHT22;67903;52.108;9.358;2023-08-30T10:33:54;19.70;60.10
64987;DHT22;67903;52.108;9.358;2023-08-30T10:36:41;19.80;58.60
64987;DHT22;67903;52.108;9.358;2023-08-30T10:39:39;20.00;58.00
64987;DHT22;67903;52.108;9.358;2023-08-30T10:42:25;19.90;58.00
64987;DHT22;67903;52.108;9.358;2023-08-30T10:45:10;19.90;58.10
64987;DHT22;67903;52.108;9.358;2023-08-30T10:47:59;20.00;58.40
64987;DHT22;67903;52.108;9.358;2023-08-30T10:50:44;19.90;58.40
64987;DHT22;67903;52.108;9.358;2023-08-30T10:53:30;20.00;58.20
64987;DHT22;67903;52.108;9.358;2023-08-30T10:56:16;20.00;57.70
64987;DHT22;67903;52.108;9.358;2023-08-30T10:59:02;20.00;58.00
64987;DHT22;67903;52.108;9.358;2023-08-30T11:01:49;20.10;58.00
64987;DHT22;67903;52.108;9.358;2023-08-30T11:04:39;20.20;57.70
64987;DHT22;67903;52.108;9.358;2023-08-30T11:07:26;20.30;57.90
64987;DHT22;67903;52.108;9.358;2023-08-30T11:10:12;20.30;57.80
64987;DHT22;67903;52.108;9.358;2023-08-30T11:12:58;20.40;58.40
64987;DHT22;67903;52.108;9.358;2023-08-30T11:15:43;20.50;57.90
64987;DHT22;67903;52.108;9.358;2023-08-30T11:18:30;20.50;57.00
64987;DHT22;67903;52.108;9.358;2023-08-30T11:21:16;20.50;57.20
64987;DHT22;67903;52.108;9.358;2023-08-30T11:24:03;20.60;57.10
64987;DHT22;67903;52.108;9.358;2023-08-30T11:26:53;20.60;56.50
64987;DHT22;67903;52.108;9.358;2023-08-30T11:29:39;20.50;57.50
64987;DHT22;67903;52.108;9.358;2023-08-30T11:32:25;20.30;57.60
64987;DHT22;67903;52.108;9.358;2023-08-30T11:35:11;20.40;57.50
64987;DHT22;67903;52.108;9.358;2023-08-30T11:37:56;20.40;57.80
64987;DHT22;67903;52.108;9.358;2023-08-30T11:40:43;20.40;58.20
64987;DHT22;67903;52.108;9.358;2023-08-30T11:43:29;20.50;58.00
64987;DHT22;67903;52.108;9.358;2023-08-30T11:46:15;20.70;57.70
64987;DHT22;67903;52.108;9.358;2023-08-30T11:49:01;20.60;56.40
64987;DHT22;67903;52.108;9.358;2023-08-30T11:51:48;20.50;56.50
64987;DHT22;67903;52.108;9.358;2023-08-30T11:54:34;20.50;56.10
64987;DHT22;67903;52.108;9.358;2023-08-30T11:57:20;20.50;56.30
64987;DHT22;67903;52.108;9.358;2023-08-30T12:00:12;20.40;56.70
64987;DHT22;67903;52.108;9.358;2023-08-30T12:02:58;20.30;56.60
64987;DHT22;67903;52.108;9.358;2023-08-30T12:05:50;20.30;56.50
64987;DHT22;67903;52.108;9.358;2023-08-30T12:08:35;20.30;56.00
64987;DHT22;67903;52.108;9.358;2023-08-30T12:11:21;20.10;56.40
64987;DHT22;67903;52.108;9.358;2023-08-30T12:14:06;20.10;56.40
64987;DHT22;67903;52.108;9.358;2023-08-30T12:16:52;20.20;56.60
64987;DHT22;67903;52.108;9.358;2023-08-30T12:19:38;20.30;56.20
64987;DHT22;67903;52.108;9.358;2023-08-30T12:22:45;20.30;56.50
64987;DHT22;67903;52.108;9.358;2023-08-30T12:25:33;20.50;56.70
64987;DHT22;67903;52.108;9.358;2023-08-30T12:28:19;20.30;56.30
64987;DHT22;67903;52.108;9.358;2023-08-30T12:31:05;20.10;56.20
64987;DHT22;67903;52.108;9.358;2023-08-30T12:33:51;20.00;56.50
64987;DHT22;67903;52.108;9.358;2023-08-30T12:36:36;19.70;57.10
64987;DHT22;67903;52.108;9.358;2023-08-30T12:39:22;19.70;58.50
64987;DHT22;67903;52.108;9.358;2023-08-30T12:42:07;19.40;59.20
64987;DHT22;67903;52.108;9.358;2023-08-30T12:44:54;19.40;60.00
64987;DHT22;67903;52.108;9.358;2023-08-30T12:47:40;19.10;59.90
64987;DHT22;67903;52.108;9.358;2023-08-30T12:50:25;19.00;60.10
64987;DHT22;67903;52.108;9.358;2023-08-30T12:53:11;19.00;60.90
64987;DHT22;67903;52.108;9.358;2023-08-30T12:55:57;19.10;60.50
64987;DHT22;67903;52.108;9.358;2023-08-30T12:58:43;19.10;60.00
64987;DHT22;67903;52.108;9.358;2023-08-30T13:01:28;19.30;58.80
64987;DHT22;67903;52.108;9.358;2023-08-30T13:04:14;19.50;58.70
64987;DHT22;67903;52.108;9.358;2023-08-30T13:07:00;19.70;59.00
64987;DHT22;67903;52.108;9.358;2023-08-30T13:09:45;19.90;57.60
64987;DHT22;67903;52.108;9.358;2023-08-30T13:12:31;20.00;57.80
64987;DHT22;67903;52.108;9.358;2023-08-30T13:15:16;20.00;58.10
64987;DHT22;67903;52.108;9.358;2023-08-30T13:18:03;20.00;57.30
64987;DHT22;67903;52.108;9.358;2023-08-30T13:20:48;19.90;57.30
64987;DHT22;67903;52.108;9.358;2023-08-30T13:23:34;19.80;57.60
64987;DHT22;67903;52.108;9.358;2023-08-30T13:26:19;19.90;57.70
64987;DHT22;67903;52.108;9.358;2023-08-30T13:29:05;20.10;57.80
64987;DHT22;67903;52.108;9.358;2023-08-30T13:31:51;20.30;56.60
64987;DHT22;67903;52.108;9.358;2023-08-30T13:34:36;20.50;57.40
64987;DHT22;67903;52.108;9.358;2023-08-30T13:37:22;20.30;56.70
64987;DHT22;67903;52.108;9.358;2023-08-30T13:40:09;20.30;57.00
64987;DHT22;67903;52.108;9.358;2023-08-30T13:42:55;20.30;57.30
64987;DHT22;67903;52.108;9.358;2023-08-30T13:45:40;20.30;57.40
64987;DHT22;67903;52.108;9.358;2023-08-30T13:48:26;20.30;57.10
64987;DHT22;67903;52.108;9.358;2023-08-30T13:51:11;20.30;56.90
64987;DHT22;67903;52.108;9.358;2023-08-30T13:53:57;20.30;57.20
64987;DHT22;67903;52.108;9.358;2023-08-30T13:56:42;20.30;57.30
64987;DHT22;67903;52.108;9.358;2023-08-30T13:59:28;20.30;57.30
64987;DHT22;67903;52.108;9.358;2023-08-30T14:02:14;20.30;56.70
64987;DHT22;67903;52.108;9.358;2023-08-30T14:04:59;20.30;56.50
64987;DHT22;67903;52.108;9.358;2023-08-30T14:07:45;20.30;57.10
64987;DHT22;67903;52.108;9.358;2023-08-30T14:10:32;20.30;57.40
64987;DHT22;67903;52.108;9.358;2023-08-30T14:13:18;20.10;57.50
64987;DHT22;67903;52.108;9.358;2023-08-30T14:16:04;19.90;57.40
64987;DHT22;67903;52.108;9.358;2023-08-30T14:18:49;19.90;57.50
64987;DHT22;67903;52.108;9.358;2023-08-30T14:21:35;19.70;57.80
64987;DHT22;67903;52.108;9.358;2023-08-30T14:24:20;19.50;58.20
64987;DHT22;67903;52.108;9.358;2023-08-30T14:27:06;19.40;58.20
64987;DHT22;67903;52.108;9.358;2023-08-30T14:29:52;19.10;57.60
64987;DHT22;67903;52.108;9.358;2023-08-30T14:32:38;19.10;58.40
64987;DHT22;67903;52.108;9.358;2023-08-30T14:35:23;19.00;59.70
64987;DHT22;67903;52.108;9.358;2023-08-30T14:38:09;18.90;60.50
64987;DHT22;67903;52.108;9.358;2023-08-30T14:40:59;18.90;60.60
64987;DHT22;67903;52.108;9.358;2023-08-30T14:43:45;18.90;60.80
64987;DHT22;67903;52.108;9.358;2023-08-30T14:46:30;18.80;61.10
64987;DHT22;67903;52.108;9.358;2023-08-30T14:49:16;18.70;62.40
64987;DHT22;67903;52.108;9.358;2023-08-30T14:52:01;18.70;61.70
64987;DHT22;67903;52.108;9.358;2023-08-30T14:54:47;18.70;61.50
64987;DHT22;67903;52.108;9.358;2023-08-30T14:57:32;18.40;64.90
64987;DHT22;67903;52.108;9.358;2023-08-30T15:00:18;17.80;69.50
64987;DHT22;67903;52.108;9.358;2023-08-30T15:03:04;17.80;69.60
64987;DHT22;67903;52.108;9.358;2023-08-30T15:05:53;17.70;68.90
64987;DHT22;67903;52.108;9.358;2023-08-30T15:08:42;17.60;68.20
64987;DHT22;67903;52.108;9.358;2023-08-30T15:11:28;17.40;67.60
64987;DHT22;67903;52.108;9.358;2023-08-30T15:14:13;17.30;68.10
64987;DHT22;67903;52.108;9.358;2023-08-30T15:16:59;17.20;68.40
64987;DHT22;67903;52.108;9.358;2023-08-30T15:19:45;17.00;69.00
64987;DHT22;67903;52.108;9.358;2023-08-30T15:22:30;17.00;69.70
64987;DHT22;67903;52.108;9.358;2023-08-30T15:25:18;17.00;70.10
64987;DHT22;67903;52.108;9.358;2023-08-30T15:28:04;16.90;70.30
64987;DHT22;67903;52.108;9.358;2023-08-30T15:30:49;17.00;70.70
64987;DHT22;67903;52.108;9.358;2023-08-30T15:33:36;16.80;71.80
64987;DHT22;67903;52.108;9.358;2023-08-30T15:36:22;16.50;74.10
64987;DHT22;67903;52.108;9.358;2023-08-30T15:39:07;16.10;76.00
64987;DHT22;67903;52.108;9.358;2023-08-30T15:41:54;16.00;77.50
64987;DHT22;67903;52.108;9.358;2023-08-30T15:44:39;15.80;80.10
64987;DHT22;67903;52.108;9.358;2023-08-30T15:47:25;15.70;81.70
64987;DHT22;67903;52.108;9.358;2023-08-30T15:50:11;15.60;82.80
64987;DHT22;67903;52.108;9.358;2023-08-30T15:52:57;15.50;84.40
64987;DHT22;67903;52.108;9.358;2023-08-30T15:55:43;15.30;86.80
64987;DHT22;67903;52.108;9.358;2023-08-30T15:58:28;14.90;91.90
64987;DHT22;67903;52.108;9.358;2023-08-30T16:01:15;14.60;96.40
64987;DHT22;67903;52.108;9.358;2023-08-30T16:04:01;14.60;98.90
64987;DHT22;67903;52.108;9.358;2023-08-30T16:06:46;14.50;98.00
64987;DHT22;67903;52.108;9.358;2023-08-30T16:09:32;14.50;99.10
64987;DHT22;67903;52.108;9.358;2023-08-30T16:12:18;14.50;99.70
64987;DHT22;67903;52.108;9.358;2023-08-30T16:15:04;14.40;99.90
64987;DHT22;67903;52.108;9.358;2023-08-30T16:17:49;14.30;99.90
64987;DHT22;67903;52.108;9.358;2023-08-30T16:20:35;14.20;99.90
64987;DHT22;67903;52.108;9.358;2023-08-30T16:23:20;14.20;99.90
64987;DHT22;67903;52.108;9.358;2023-08-30T16:26:06;14.30;99.90
64987;DHT22;67903;52.108;9.358;2023-08-30T16:28:52;14.30;99.90
64987;DHT22;67903;52.108;9.358;2023-08-30T16:31:37;14.20;99.90
64987;DHT22;67903;52.108;9.358;2023-08-30T16:34:22;14.20;99.90
64987;DHT22;67903;52.108;9.358;2023-08-30T16:37:08;14.30;99.90
64987;DHT22;67903;52.108;9.358;2023-08-30T16:39:54;14.20;99.90
64987;DHT22;67903;52.108;9.358;2023-08-30T16:42:39;14.30;99.90
64987;DHT22;67903;52.108;9.358;2023-08-30T16:45:25;14.30;99.90
64987;DHT22;67903;52.108;9.358;2023-08-30T16:48:10;14.40;99.90
64987;DHT22;67903;52.108;9.358;2023-08-30T16:50:57;14.30;99.90
64987;DHT22;67903;52.108;9.358;2023-08-30T16:53:43;14.30;99.90
64987;DHT22;67903;52.108;9.358;2023-08-30T16:56:29;14.30;99.90
64987;DHT22;67903;52.108;9.358;2023-08-30T16:59:14;14.30;99.90
64987;DHT22;67903;52.108;9.358;2023-08-30T17:02:00;14.40;99.90
64987;DHT22;67903;52.108;9.358;2023-08-30T17:04:45;14.30;99.50
64987;DHT22;67903;52.108;9.358;2023-08-30T17:07:31;14.30;99.90
64987;DHT22;67903;52.108;9.358;2023-08-30T17:10:17;14.10;99.90
64987;DHT22;67903;52.108;9.358;2023-08-30T17:13:02;14.10;99.90
64987;DHT22;67903;52.108;9.358;2023-08-30T17:15:48;14.20;99.90
64987;DHT22;67903;52.108;9.358;2023-08-30T17:18:34;14.00;99.90
64987;DHT22;67903;52.108;9.358;2023-08-30T17:21:23;14.00;99.90
64987;DHT22;67903;52.108;9.358;2023-08-30T17:24:09;14.10;99.90
64987;DHT22;67903;52.108;9.358;2023-08-30T17:26:54;14.00;99.90
64987;DHT22;67903;52.108;9.358;2023-08-30T17:29:42;14.00;99.90
64987;DHT22;67903;52.108;9.358;2023-08-30T17:32:28;14.00;99.90
64987;DHT22;67903;52.108;9.358;2023-08-30T17:35:13;14.00;99.90